Time,TemperatureF,DewpointF,PressureIn,WindDirection,WindDirectionDegrees,WindSpeedMPH,WindSpeedGustMPH,Humidity,HourlyPrecipIn,Conditions,Clouds,dailyrainin,SoftwareType,DateUTC
2013-01-30 00:04:00,42.3,39.6,30.27,SE,142,1.0,2.0,90,0.00,,,0.00,meteohub,2013-01-30 08:04:00,
2013-01-30 00:09:00,42.1,39.4,30.27,ESE,119,0.0,3.0,90,0.00,,,0.00,meteohub,2013-01-30 08:09:00,
2013-01-30 00:14:00,42.1,39.4,30.27,WSW,249,1.0,3.0,90,0.00,,,0.00,meteohub,2013-01-30 08:14:00,
2013-01-30 00:19:00,41.9,39.2,30.27,WSW,249,0.0,2.0,90,0.00,,,0.00,meteohub,2013-01-30 08:19:00,
2013-01-30 00:25:00,41.7,39.0,30.27,East,99,0.0,2.0,90,0.00,,,0.00,meteohub,2013-01-30 08:25:00,
2013-01-30 00:30:00,41.9,39.4,30.27,SE,128,0.0,2.0,91,0.00,,,0.00,meteohub,2013-01-30 08:30:00,
2013-01-30 00:35:00,42.1,39.6,30.26,SSE,161,1.0,2.0,91,0.00,,,0.00,meteohub,2013-01-30 08:35:00,
2013-01-30 00:40:00,41.7,38.7,30.26,ESE,118,2.0,2.0,89,0.00,,,0.00,meteohub,2013-01-30 08:40:00,
2013-01-30 00:45:00,41.5,38.8,30.26,East,97,0.0,2.0,90,0.00,,,0.00,meteohub,2013-01-30 08:45:00,
2013-01-30 00:50:00,41.5,38.8,30.27,ESE,103,1.0,3.0,90,0.00,,,0.00,meteohub,2013-01-30 08:50:00,
2013-01-30 00:55:00,42.1,39.6,30.27,South,188,1.0,3.0,91,0.00,,,0.00,meteohub,2013-01-30 08:55:00,
2013-01-30 01:00:00,42.1,39.4,30.27,West,270,1.0,2.0,90,0.00,,,0.00,meteohub,2013-01-30 09:00:00,
2013-01-30 01:05:00,41.7,39.0,30.26,West,260,0.0,2.0,90,0.00,,,0.00,meteohub,2013-01-30 09:05:00,
2013-01-30 01:10:00,41.5,38.8,30.26,West,260,1.0,2.0,90,0.00,,,0.00,meteohub,2013-01-30 09:10:00,
2013-01-30 01:15:00,41.5,38.8,30.26,South,175,2.0,2.0,90,0.00,,,0.00,meteohub,2013-01-30 09:15:00,
2013-01-30 01:20:00,41.4,38.7,30.26,East,88,2.0,3.0,90,0.00,,,0.00,meteohub,2013-01-30 09:20:00,
2013-01-30 01:25:00,41.2,38.8,30.26,SSE,150,0.0,3.0,91,0.00,,,0.00,meteohub,2013-01-30 09:25:00,
2013-01-30 01:30:00,41.2,38.8,30.26,ESE,121,1.0,3.0,91,0.00,,,0.00,meteohub,2013-01-30 09:30:00,
2013-01-30 01:35:00,41.4,39.0,30.26,SSE,152,1.0,2.0,91,0.00,,,0.00,meteohub,2013-01-30 09:35:00,
2013-01-30 01:40:00,41.4,39.0,30.26,ESE,113,0.0,2.0,91,0.00,,,0.00,meteohub,2013-01-30 09:40:00,
2013-01-30 01:45:00,41.5,39.2,30.26,ESE,113,0.0,2.0,91,0.00,,,0.00,meteohub,2013-01-30 09:45:00,
2013-01-30 01:50:00,41.4,39.0,30.25,ESE,113,0.0,1.0,91,0.00,,,0.00,meteohub,2013-01-30 09:50:00,
2013-01-30 01:55:00,41.4,39.0,30.25,ESE,113,0.0,1.0,91,0.00,,,0.00,meteohub,2013-01-30 09:55:00,
2013-01-30 02:00:00,41.2,38.8,30.25,SE,132,0.0,1.0,91,0.00,,,0.00,meteohub,2013-01-30 10:00:00,
2013-01-30 02:05:00,40.8,38.5,30.25,SE,132,0.0,1.0,91,0.00,,,0.00,meteohub,2013-01-30 10:05:00,
2013-01-30 02:11:00,40.6,38.3,30.25,SE,132,0.0,0.0,91,0.00,,,0.00,meteohub,2013-01-30 10:11:00,
2013-01-30 02:16:00,40.5,38.1,30.25,SE,132,0.0,0.0,91,0.00,,,0.00,meteohub,2013-01-30 10:16:00,
2013-01-30 02:21:00,40.5,38.3,30.25,SE,132,0.0,0.0,92,0.00,,,0.00,meteohub,2013-01-30 10:21:00,
2013-01-30 02:26:00,40.3,38.1,30.25,ENE,65,0.0,0.0,92,0.00,,,0.00,meteohub,2013-01-30 10:26:00,
2013-01-30 02:31:00,40.3,38.1,30.25,ESE,122,0.0,0.0,92,0.00,,,0.00,meteohub,2013-01-30 10:31:00,
2013-01-30 02:36:00,40.3,38.1,30.25,WNW,300,0.0,2.0,92,0.00,,,0.00,meteohub,2013-01-30 10:36:00,
2013-01-30 02:41:00,40.3,38.1,30.25,ESE,109,0.0,2.0,92,0.00,,,0.00,meteohub,2013-01-30 10:41:00,
2013-01-30 02:46:00,40.1,37.9,30.25,ESE,107,0.0,2.0,92,0.00,,,0.00,meteohub,2013-01-30 10:46:00,
2013-01-30 02:51:00,40.1,37.9,30.25,ESE,107,0.0,2.0,92,0.00,,,0.00,meteohub,2013-01-30 10:51:00,
2013-01-30 02:56:00,39.9,37.8,30.25,ESE,107,0.0,2.0,92,0.00,,,0.00,meteohub,2013-01-30 10:56:00,
2013-01-30 03:01:00,39.9,37.8,30.25,ESE,107,0.0,1.0,92,0.00,,,0.00,meteohub,2013-01-30 11:01:00,
2013-01-30 03:06:00,39.9,38.1,30.24,NNW,327,0.0,1.0,93,0.00,,,0.00,meteohub,2013-01-30 11:06:00,
2013-01-30 03:11:00,39.9,38.1,30.24,WSW,252,0.0,1.0,93,0.00,,,0.00,meteohub,2013-01-30 11:11:00,
2013-01-30 03:16:00,39.7,37.6,30.24,WSW,252,1.0,2.0,92,0.00,,,0.00,meteohub,2013-01-30 11:16:00,
2013-01-30 03:21:00,39.6,37.4,30.24,WSW,251,1.0,2.0,92,0.00,,,0.00,meteohub,2013-01-30 11:21:00,
2013-01-30 03:26:00,39.6,37.8,30.24,WNW,285,1.0,2.0,93,0.00,,,0.00,meteohub,2013-01-30 11:26:00,
2013-01-30 03:31:00,39.7,37.6,30.24,NE,44,1.0,2.0,92,0.00,,,0.00,meteohub,2013-01-30 11:31:00,
2013-01-30 03:36:00,39.9,38.1,30.24,NW,310,0.0,3.0,93,0.00,,,0.00,meteohub,2013-01-30 11:36:00,
2013-01-30 03:41:00,40.1,37.9,30.24,ESE,121,0.0,3.0,92,0.00,,,0.00,meteohub,2013-01-30 11:41:00,
2013-01-30 03:46:00,39.9,37.8,30.24,ESE,121,1.0,3.0,92,0.00,,,0.00,meteohub,2013-01-30 11:46:00,
2013-01-30 03:51:00,39.6,37.2,30.23,ESE,121,0.0,1.0,91,0.00,,,0.00,meteohub,2013-01-30 11:51:00,
2013-01-30 03:56:00,39.2,36.9,30.23,SSE,148,0.0,1.0,91,0.00,,,0.00,meteohub,2013-01-30 11:56:00,
2013-01-30 04:01:00,38.8,36.5,30.23,SSE,148,0.0,1.0,91,0.00,,,0.00,meteohub,2013-01-30 12:01:00,
2013-01-30 04:06:00,38.7,36.5,30.23,SSW,210,1.0,2.0,92,0.00,,,0.00,meteohub,2013-01-30 12:06:00,
2013-01-30 04:11:00,38.5,36.3,30.23,SSW,200,0.0,2.0,92,0.00,,,0.00,meteohub,2013-01-30 12:11:00,
2013-01-30 04:16:00,38.5,36.7,30.23,SE,128,0.0,2.0,93,0.00,,,0.00,meteohub,2013-01-30 12:16:00,
2013-01-30 04:22:00,38.5,36.7,30.23,ESE,113,0.0,1.0,93,0.00,,,0.00,meteohub,2013-01-30 12:22:00,
2013-01-30 04:27:00,38.5,36.7,30.23,ENE,78,2.0,2.0,93,0.00,,,0.00,meteohub,2013-01-30 12:27:00,
2013-01-30 04:32:00,38.7,36.9,30.23,West,264,1.0,2.0,93,0.00,,,0.00,meteohub,2013-01-30 12:32:00,
2013-01-30 04:37:00,39.0,37.4,30.24,NW,315,1.0,2.0,94,0.00,,,0.00,meteohub,2013-01-30 12:37:00,
2013-01-30 04:42:00,39.0,37.2,30.24,SSW,207,1.0,2.0,93,0.00,,,0.00,meteohub,2013-01-30 12:42:00,
2013-01-30 04:47:00,38.8,37.0,30.24,SSW,207,0.0,1.0,93,0.00,,,0.00,meteohub,2013-01-30 12:47:00,
2013-01-30 04:52:00,39.0,37.2,30.24,SSW,207,0.0,1.0,93,0.00,,,0.00,meteohub,2013-01-30 12:52:00,
2013-01-30 04:57:00,38.7,36.9,30.24,WSW,240,0.0,1.0,93,0.00,,,0.00,meteohub,2013-01-30 12:57:00,
2013-01-30 05:02:00,38.7,36.9,30.24,WSW,240,0.0,1.0,93,0.00,,,0.00,meteohub,2013-01-30 13:02:00,
2013-01-30 05:07:00,38.7,36.9,30.24,WSW,239,1.0,2.0,93,0.00,,,0.00,meteohub,2013-01-30 13:07:00,
2013-01-30 05:12:00,38.7,36.9,30.24,East,92,0.0,1.0,93,0.00,,,0.00,meteohub,2013-01-30 13:12:00,
2013-01-30 05:17:00,38.8,37.0,30.24,East,80,0.0,1.0,93,0.00,,,0.00,meteohub,2013-01-30 13:17:00,
2013-01-30 05:22:00,38.8,37.2,30.24,NW,312,0.0,3.0,94,0.00,,,0.00,meteohub,2013-01-30 13:22:00,
2013-01-30 05:27:00,38.7,36.9,30.24,NW,309,0.0,3.0,93,0.00,,,0.00,meteohub,2013-01-30 13:27:00,
2013-01-30 05:32:00,38.1,36.0,30.24,NW,310,0.0,3.0,92,0.00,,,0.00,meteohub,2013-01-30 13:32:00,
2013-01-30 05:37:00,37.9,36.1,30.24,NW,311,0.0,1.0,93,0.00,,,0.00,meteohub,2013-01-30 13:37:00,
2013-01-30 05:42:00,37.8,36.0,30.24,NW,311,1.0,1.0,93,0.00,,,0.00,meteohub,2013-01-30 13:42:00,
2013-01-30 05:47:00,37.8,36.0,30.24,NW,322,1.0,1.0,93,0.00,,,0.00,meteohub,2013-01-30 13:47:00,
2013-01-30 05:52:00,37.8,36.1,30.24,NE,55,0.0,1.0,94,0.00,,,0.00,meteohub,2013-01-30 13:52:00,
2013-01-30 05:57:00,37.9,36.3,30.24,WNW,300,0.0,1.0,94,0.00,,,0.00,meteohub,2013-01-30 13:57:00,
2013-01-30 06:02:00,37.9,36.3,30.24,NW,323,1.0,1.0,94,0.00,,,0.00,meteohub,2013-01-30 14:02:00,
2013-01-30 06:08:00,38.1,36.5,30.25,NW,321,0.0,1.0,94,0.00,,,0.00,meteohub,2013-01-30 14:08:00,
2013-01-30 06:13:00,37.8,36.1,30.25,WSW,246,0.0,1.0,94,0.00,,,0.00,meteohub,2013-01-30 14:13:00,
2013-01-30 06:18:00,37.4,35.8,30.25,WSW,246,0.0,1.0,94,0.00,,,0.00,meteohub,2013-01-30 14:18:00,
2013-01-30 06:23:00,37.6,36.0,30.25,NNW,347,0.0,1.0,94,0.00,,,0.00,meteohub,2013-01-30 14:23:00,
2013-01-30 06:28:00,37.4,35.8,30.25,NNW,347,0.0,2.0,94,0.00,,,0.00,meteohub,2013-01-30 14:28:00,
2013-01-30 06:33:00,37.2,35.6,30.25,NNW,348,0.0,2.0,94,0.00,,,0.00,meteohub,2013-01-30 14:33:00,
2013-01-30 06:38:00,37.0,35.4,30.25,North,350,0.0,1.0,94,0.00,,,0.00,meteohub,2013-01-30 14:38:00,
2013-01-30 06:43:00,37.0,35.4,30.25,NNE,33,1.0,1.0,94,0.00,,,0.00,meteohub,2013-01-30 14:43:00,
2013-01-30 06:48:00,37.2,36.0,30.25,NNE,32,1.0,2.0,95,0.00,,,0.00,meteohub,2013-01-30 14:48:00,
2013-01-30 06:53:00,37.0,35.4,30.26,West,263,0.0,2.0,94,0.00,,,0.00,meteohub,2013-01-30 14:53:00,
2013-01-30 06:58:00,36.9,35.2,30.26,West,262,0.0,2.0,94,0.00,,,0.00,meteohub,2013-01-30 14:58:00,
2013-01-30 07:03:00,36.9,35.2,30.26,West,263,0.0,2.0,94,0.00,,,0.00,meteohub,2013-01-30 15:03:00,
2013-01-30 07:08:00,36.9,35.6,30.27,West,262,0.0,1.0,95,0.00,,,0.00,meteohub,2013-01-30 15:08:00,
2013-01-30 07:13:00,36.9,35.6,30.27,West,262,0.0,1.0,95,0.00,,,0.00,meteohub,2013-01-30 15:13:00,
2013-01-30 07:18:00,36.9,35.6,30.27,West,263,1.0,1.0,95,0.00,,,0.00,meteohub,2013-01-30 15:18:00,
2013-01-30 07:23:00,36.9,35.6,30.28,West,262,0.0,1.0,95,0.00,,,0.00,meteohub,2013-01-30 15:23:00,
2013-01-30 07:28:00,36.7,35.4,30.28,West,263,0.0,1.0,95,0.00,,,0.00,meteohub,2013-01-30 15:28:00,
2013-01-30 07:33:00,36.9,35.6,30.28,West,262,0.0,0.0,95,0.00,,,0.00,meteohub,2013-01-30 15:33:00,
2013-01-30 07:38:00,36.7,35.4,30.28,West,263,0.0,0.0,95,0.00,,,0.00,meteohub,2013-01-30 15:38:00,
2013-01-30 07:43:00,36.3,35.1,30.28,West,263,0.0,1.0,95,0.00,,,0.00,meteohub,2013-01-30 15:43:00,
2013-01-30 07:49:00,36.7,35.4,30.28,East,88,0.0,2.0,95,0.00,,,0.00,meteohub,2013-01-30 15:49:00,
2013-01-30 07:54:00,36.9,35.6,30.28,East,88,0.0,2.0,95,0.00,,,0.00,meteohub,2013-01-30 15:54:00,
2013-01-30 07:59:00,37.6,36.5,30.28,East,88,0.0,2.0,96,0.00,,,0.00,meteohub,2013-01-30 15:59:00,
2013-01-30 08:04:00,38.5,37.4,30.28,East,88,0.0,1.0,96,0.00,,,0.00,meteohub,2013-01-30 16:04:00,
2013-01-30 08:09:00,39.7,38.7,30.27,East,90,0.0,1.0,96,0.00,,,0.00,meteohub,2013-01-30 16:09:00,
2013-01-30 08:14:00,40.1,38.8,30.27,West,275,1.0,1.0,95,0.00,,,0.00,meteohub,2013-01-30 16:14:00,
2013-01-30 08:19:00,40.3,38.7,30.27,West,275,0.0,2.0,94,0.00,,,0.00,meteohub,2013-01-30 16:19:00,
2013-01-30 08:24:00,40.8,39.2,30.29,West,270,0.0,2.0,94,0.00,,,0.00,meteohub,2013-01-30 16:24:00,
2013-01-30 08:29:00,41.5,39.7,30.29,West,271,1.0,2.0,93,0.00,,,0.00,meteohub,2013-01-30 16:29:00,
2013-01-30 08:34:00,42.3,39.7,30.29,SSW,200,0.0,1.0,91,0.00,,,0.00,meteohub,2013-01-30 16:34:00,
2013-01-30 08:39:00,43.5,40.5,30.28,SSW,200,0.0,1.0,89,0.00,,,0.00,meteohub,2013-01-30 16:39:00,
2013-01-30 08:44:00,44.2,40.6,30.28,SSW,200,0.0,1.0,87,0.00,,,0.00,meteohub,2013-01-30 16:44:00,
2013-01-30 08:49:00,45.7,41.7,30.28,SSW,200,0.0,1.0,86,0.00,,,0.00,meteohub,2013-01-30 16:49:00,
2013-01-30 08:54:00,46.9,42.4,30.30,SSW,200,0.0,1.0,84,0.00,,,0.00,meteohub,2013-01-30 16:54:00,
2013-01-30 08:59:00,47.1,41.5,30.30,SSW,202,0.0,0.0,81,0.00,,,0.00,meteohub,2013-01-30 16:59:00,
2013-01-30 09:04:00,46.9,41.7,30.30,SSW,205,0.0,1.0,82,0.00,,,0.00,meteohub,2013-01-30 17:04:00,
2013-01-30 09:09:00,47.1,41.9,30.28,West,263,0.0,2.0,82,0.00,,,0.00,meteohub,2013-01-30 17:09:00,
2013-01-30 09:14:00,47.7,42.1,30.28,NNW,328,1.0,2.0,81,0.00,,,0.00,meteohub,2013-01-30 17:14:00,
2013-01-30 09:19:00,47.8,42.3,30.28,NNW,348,2.0,2.0,81,0.00,,,0.00,meteohub,2013-01-30 17:19:00,
2013-01-30 09:24:00,48.4,42.4,30.30,NE,50,1.0,2.0,80,0.00,,,0.00,meteohub,2013-01-30 17:24:00,
2013-01-30 09:29:00,49.1,42.8,30.30,NNE,27,1.0,2.0,79,0.00,,,0.00,meteohub,2013-01-30 17:29:00,
2013-01-30 09:35:00,50.4,44.1,30.28,NE,54,0.0,3.0,79,0.00,,,0.00,meteohub,2013-01-30 17:35:00,
2013-01-30 09:40:00,51.8,44.1,30.28,ESE,115,1.0,3.0,75,0.00,,,0.00,meteohub,2013-01-30 17:40:00,
2013-01-30 09:45:00,52.5,44.1,30.28,SE,134,1.0,4.0,73,0.00,,,0.00,meteohub,2013-01-30 17:45:00,
2013-01-30 09:50:00,53.4,44.6,30.28,SSE,165,0.0,4.0,72,0.00,,,0.00,meteohub,2013-01-30 17:50:00,
2013-01-30 09:55:00,54.1,44.6,30.28,SSW,202,2.0,4.0,70,0.00,,,0.00,meteohub,2013-01-30 17:55:00,
2013-01-30 10:00:00,54.3,44.8,30.28,South,188,0.0,2.0,70,0.00,,,0.00,meteohub,2013-01-30 18:00:00,
2013-01-30 10:05:00,54.9,45.0,30.28,SSW,193,1.0,3.0,69,0.00,,,0.00,meteohub,2013-01-30 18:05:00,
2013-01-30 10:10:00,55.6,45.1,30.28,SW,218,1.0,3.0,68,0.00,,,0.00,meteohub,2013-01-30 18:10:00,
2013-01-30 10:15:00,56.1,46.0,30.28,SW,214,1.0,3.0,69,0.00,,,0.00,meteohub,2013-01-30 18:15:00,
2013-01-30 10:20:00,56.5,45.3,30.29,WSW,238,1.0,3.0,66,0.00,,,0.00,meteohub,2013-01-30 18:20:00,
2013-01-30 10:25:00,56.7,45.9,30.29,SE,142,1.0,3.0,67,0.00,,,0.00,meteohub,2013-01-30 18:25:00,
2013-01-30 10:30:00,57.0,45.9,30.29,SW,234,1.0,4.0,66,0.00,,,0.00,meteohub,2013-01-30 18:30:00,
2013-01-30 10:35:00,57.7,46.0,30.29,SW,226,1.0,4.0,65,0.00,,,0.00,meteohub,2013-01-30 18:35:00,
2013-01-30 10:40:00,58.3,45.7,30.29,South,188,3.0,4.0,63,0.00,,,0.00,meteohub,2013-01-30 18:40:00,
2013-01-30 10:45:00,58.6,45.7,30.29,SSW,207,1.0,4.0,62,0.00,,,0.00,meteohub,2013-01-30 18:45:00,
2013-01-30 10:50:00,58.8,44.6,30.28,ESE,106,2.0,4.0,59,0.00,,,0.00,meteohub,2013-01-30 18:50:00,
2013-01-30 10:55:00,59.2,44.8,30.28,South,169,2.0,3.0,59,0.00,,,0.00,meteohub,2013-01-30 18:55:00,
2013-01-30 11:00:00,59.4,43.7,30.28,South,176,1.0,3.0,56,0.00,,,0.00,meteohub,2013-01-30 19:00:00,
2013-01-30 11:05:00,59.7,44.4,30.28,SW,223,1.0,4.0,57,0.00,,,0.00,meteohub,2013-01-30 19:05:00,
2013-01-30 11:10:00,59.9,43.7,30.28,SW,221,1.0,4.0,55,0.00,,,0.00,meteohub,2013-01-30 19:10:00,
2013-01-30 11:16:00,60.3,44.4,30.28,SSW,209,1.0,4.0,56,0.00,,,0.00,meteohub,2013-01-30 19:16:00,
2013-01-30 11:21:00,60.6,43.9,30.28,SW,223,2.0,4.0,54,0.00,,,0.00,meteohub,2013-01-30 19:21:00,
2013-01-30 11:26:00,60.6,43.9,30.28,SW,225,1.0,3.0,54,0.00,,,0.00,meteohub,2013-01-30 19:26:00,
2013-01-30 11:31:00,60.8,44.1,30.28,SW,221,1.0,4.0,54,0.00,,,0.00,meteohub,2013-01-30 19:31:00,
2013-01-30 11:36:00,61.0,42.8,30.27,SW,223,1.0,5.0,51,0.00,,,0.00,meteohub,2013-01-30 19:36:00,
2013-01-30 11:41:00,61.2,43.9,30.27,SW,219,3.0,6.0,53,0.00,,,0.00,meteohub,2013-01-30 19:41:00,
2013-01-30 11:46:00,61.5,43.7,30.27,SE,144,2.0,6.0,52,0.00,,,0.00,meteohub,2013-01-30 19:46:00,
2013-01-30 11:51:00,61.7,43.9,30.27,South,178,3.0,6.0,52,0.00,,,0.00,meteohub,2013-01-30 19:51:00,
2013-01-30 11:56:00,61.9,44.1,30.27,South,184,2.0,6.0,52,0.00,,,0.00,meteohub,2013-01-30 19:56:00,
2013-01-30 12:01:00,61.9,43.5,30.27,SSE,154,5.0,6.0,51,0.00,,,0.00,meteohub,2013-01-30 20:01:00,
2013-01-30 12:06:00,62.1,43.7,30.26,SSW,199,1.0,5.0,51,0.00,,,0.00,meteohub,2013-01-30 20:06:00,
2013-01-30 12:11:00,62.2,43.3,30.26,SSW,207,3.0,5.0,50,0.00,,,0.00,meteohub,2013-01-30 20:11:00,
2013-01-30 12:16:00,62.2,43.9,30.26,SW,216,2.0,9.0,51,0.00,,,0.00,meteohub,2013-01-30 20:16:00,
2013-01-30 12:21:00,62.2,44.4,30.25,SW,226,3.0,9.0,52,0.00,,,0.00,meteohub,2013-01-30 20:21:00,
2013-01-30 12:26:00,62.6,44.2,30.25,SW,220,0.0,9.0,51,0.00,,,0.00,meteohub,2013-01-30 20:26:00,
2013-01-30 12:31:00,63.0,44.1,30.25,West,265,2.0,5.0,50,0.00,,,0.00,meteohub,2013-01-30 20:31:00,
2013-01-30 12:37:00,63.7,44.8,30.25,SSW,202,2.0,4.0,50,0.00,,,0.00,meteohub,2013-01-30 20:37:00,
2013-01-30 12:42:00,63.9,44.2,30.25,SSW,205,1.0,4.0,49,0.00,,,0.00,meteohub,2013-01-30 20:42:00,
2013-01-30 12:47:00,63.9,44.2,30.25,SW,236,2.0,4.0,49,0.00,,,0.00,meteohub,2013-01-30 20:47:00,
2013-01-30 12:52:00,64.2,44.6,30.24,South,187,3.0,5.0,49,0.00,,,0.00,meteohub,2013-01-30 20:52:00,
2013-01-30 12:57:00,64.0,43.3,30.24,ENE,78,1.0,6.0,47,0.00,,,0.00,meteohub,2013-01-30 20:57:00,
2013-01-30 13:02:00,64.6,44.4,30.24,SSW,202,1.0,6.0,48,0.00,,,0.00,meteohub,2013-01-30 21:02:00,
2013-01-30 13:07:00,64.6,43.3,30.23,WSW,245,4.0,5.0,46,0.00,,,0.00,meteohub,2013-01-30 21:07:00,
2013-01-30 13:12:00,64.6,43.9,30.23,SW,223,3.0,4.0,47,0.00,,,0.00,meteohub,2013-01-30 21:12:00,
2013-01-30 13:17:00,64.8,44.1,30.23,SW,225,4.0,4.0,47,0.00,,,0.00,meteohub,2013-01-30 21:17:00,
2013-01-30 13:22:00,65.5,45.3,30.23,WSW,252,1.0,4.0,48,0.00,,,0.00,meteohub,2013-01-30 21:22:00,
2013-01-30 13:27:00,65.8,45.0,30.23,West,271,3.0,4.0,47,0.00,,,0.00,meteohub,2013-01-30 21:27:00,
2013-01-30 13:32:00,65.5,44.8,30.23,North,350,1.0,4.0,47,0.00,,,0.00,meteohub,2013-01-30 21:32:00,
2013-01-30 13:37:00,65.5,44.8,30.22,SSW,198,1.0,6.0,47,0.00,,,0.00,meteohub,2013-01-30 21:37:00,
2013-01-30 13:42:00,66.2,44.8,30.22,WNW,294,2.0,6.0,46,0.00,,,0.00,meteohub,2013-01-30 21:42:00,
2013-01-30 13:47:00,66.0,45.1,30.22,SW,220,4.0,6.0,47,0.00,,,0.00,meteohub,2013-01-30 21:47:00,
2013-01-30 13:52:00,66.4,45.0,30.22,WSW,242,1.0,5.0,46,0.00,,,0.00,meteohub,2013-01-30 21:52:00,
2013-01-30 13:57:00,66.2,44.8,30.22,West,275,2.0,5.0,46,0.00,,,0.00,meteohub,2013-01-30 21:57:00,
2013-01-30 14:02:00,66.0,45.1,30.22,SSW,196,3.0,5.0,47,0.00,,,0.00,meteohub,2013-01-30 22:02:00,
2013-01-30 14:07:00,66.4,44.4,30.22,West,280,2.0,5.0,45,0.00,,,0.00,meteohub,2013-01-30 22:07:00,
2013-01-30 14:12:00,66.4,44.4,30.22,SW,229,2.0,5.0,45,0.00,,,0.00,meteohub,2013-01-30 22:12:00,
2013-01-30 14:17:00,66.7,44.1,30.22,SW,233,3.0,6.0,44,0.00,,,0.00,meteohub,2013-01-30 22:17:00,
2013-01-30 14:22:00,67.1,44.4,30.22,SW,217,3.0,6.0,44,0.00,,,0.00,meteohub,2013-01-30 22:22:00,
2013-01-30 14:27:00,66.9,45.0,30.22,SW,222,2.0,6.0,45,0.00,,,0.00,meteohub,2013-01-30 22:27:00,
2013-01-30 14:32:00,66.9,45.0,30.22,WSW,242,3.0,6.0,45,0.00,,,0.00,meteohub,2013-01-30 22:32:00,
2013-01-30 14:38:00,67.1,44.4,30.21,SSW,205,2.0,6.0,44,0.00,,,0.00,meteohub,2013-01-30 22:38:00,
2013-01-30 14:43:00,67.3,45.1,30.21,SE,144,2.0,6.0,45,0.00,,,0.00,meteohub,2013-01-30 22:43:00,
2013-01-30 14:48:00,67.5,44.8,30.21,SSW,202,1.0,5.0,44,0.00,,,0.00,meteohub,2013-01-30 22:48:00,
2013-01-30 14:53:00,67.6,45.0,30.20,WSW,252,4.0,5.0,44,0.00,,,0.00,meteohub,2013-01-30 22:53:00,
2013-01-30 14:58:00,68.0,44.6,30.20,SW,225,4.0,6.0,43,0.00,,,0.00,meteohub,2013-01-30 22:58:00,
2013-01-30 15:03:00,68.4,45.7,30.20,SW,217,1.0,6.0,44,0.00,,,0.00,meteohub,2013-01-30 23:03:00,
2013-01-30 15:08:00,68.4,45.0,30.20,West,275,2.0,4.0,43,0.00,,,0.00,meteohub,2013-01-30 23:08:00,
2013-01-30 15:13:00,68.4,45.0,30.20,West,273,1.0,4.0,43,0.00,,,0.00,meteohub,2013-01-30 23:13:00,
2013-01-30 15:18:00,68.4,45.0,30.20,West,265,2.0,4.0,43,0.00,,,0.00,meteohub,2013-01-30 23:18:00,
2013-01-30 15:23:00,68.9,45.5,30.20,South,190,2.0,4.0,43,0.00,,,0.00,meteohub,2013-01-30 23:23:00,
2013-01-30 15:28:00,68.7,45.3,30.20,SW,223,2.0,3.0,43,0.00,,,0.00,meteohub,2013-01-30 23:28:00,
2013-01-30 15:33:00,68.2,44.8,30.20,WNW,288,3.0,3.0,43,0.00,,,0.00,meteohub,2013-01-30 23:33:00,
2013-01-30 15:38:00,67.8,45.1,30.20,South,184,3.0,5.0,44,0.00,,,0.00,meteohub,2013-01-30 23:38:00,
2013-01-30 15:43:00,67.6,45.0,30.20,SSE,157,1.0,6.0,44,0.00,,,0.00,meteohub,2013-01-30 23:43:00,
2013-01-30 15:48:00,68.2,45.5,30.20,SSE,165,1.0,6.0,44,0.00,,,0.00,meteohub,2013-01-30 23:48:00,
2013-01-30 15:53:00,68.4,45.0,30.20,SE,130,2.0,6.0,43,0.00,,,0.00,meteohub,2013-01-30 23:53:00,
2013-01-30 15:58:00,68.2,46.0,30.20,SE,134,1.0,5.0,45,0.00,,,0.00,meteohub,2013-01-30 23:58:00,
2013-01-30 16:03:00,68.2,48.4,30.20,SW,226,2.0,5.0,49,0.00,,,0.00,meteohub,2013-01-31 00:03:00,
2013-01-30 16:08:00,67.3,48.0,30.20,West,260,3.0,7.0,50,0.00,,,0.00,meteohub,2013-01-31 00:08:00,
2013-01-30 16:13:00,67.1,48.4,30.20,SSW,196,3.0,7.0,51,0.00,,,0.00,meteohub,2013-01-31 00:13:00,
2013-01-30 16:18:00,66.7,48.0,30.20,SW,225,5.0,7.0,51,0.00,,,0.00,meteohub,2013-01-31 00:18:00,
2013-01-30 16:23:00,66.6,48.4,30.20,SW,225,4.0,6.0,52,0.00,,,0.00,meteohub,2013-01-31 00:23:00,
2013-01-30 16:28:00,66.4,48.2,30.20,SW,218,3.0,5.0,52,0.00,,,0.00,meteohub,2013-01-31 00:28:00,
2013-01-30 16:33:00,66.2,47.5,30.20,SW,223,0.0,5.0,51,0.00,,,0.00,meteohub,2013-01-31 00:33:00,
2013-01-30 16:38:00,66.0,47.3,30.20,SW,225,3.0,6.0,51,0.00,,,0.00,meteohub,2013-01-31 00:38:00,
2013-01-30 16:43:00,65.7,46.6,30.20,SSW,193,1.0,6.0,50,0.00,,,0.00,meteohub,2013-01-31 00:43:00,
2013-01-30 16:48:00,65.8,46.8,30.20,SSW,203,1.0,6.0,50,0.00,,,0.00,meteohub,2013-01-31 00:48:00,
2013-01-30 16:54:00,65.5,46.4,30.20,WSW,237,2.0,5.0,50,0.00,,,0.00,meteohub,2013-01-31 00:54:00,
2013-01-30 16:59:00,64.8,45.7,30.20,SSW,202,1.0,3.0,50,0.00,,,0.00,meteohub,2013-01-31 00:59:00,
2013-01-30 17:04:00,64.2,44.1,30.20,SSW,211,1.0,3.0,48,0.00,,,0.00,meteohub,2013-01-31 01:04:00,
2013-01-30 17:09:00,63.3,43.9,30.22,SSW,195,1.0,6.0,49,0.00,,,0.00,meteohub,2013-01-31 01:09:00,
2013-01-30 17:14:00,62.4,44.6,30.22,SSW,209,1.0,6.0,52,0.00,,,0.00,meteohub,2013-01-31 01:14:00,
2013-01-30 17:19:00,62.1,45.1,30.22,SSW,206,0.0,4.0,54,0.00,,,0.00,meteohub,2013-01-31 01:19:00,
2013-01-30 17:24:00,61.5,45.1,30.22,SSW,207,0.0,4.0,55,0.00,,,0.00,meteohub,2013-01-31 01:24:00,
2013-01-30 17:29:00,61.0,45.7,30.22,SSW,206,0.0,2.0,57,0.00,,,0.00,meteohub,2013-01-31 01:29:00,
2013-01-30 17:34:00,60.4,45.7,30.22,SSW,206,0.0,1.0,58,0.00,,,0.00,meteohub,2013-01-31 01:34:00,
2013-01-30 17:39:00,59.7,45.3,30.22,SSW,206,0.0,0.0,59,0.00,,,0.00,meteohub,2013-01-31 01:39:00,
2013-01-30 17:44:00,59.2,45.3,30.22,SSW,207,1.0,1.0,60,0.00,,,0.00,meteohub,2013-01-31 01:44:00,
2013-01-30 17:49:00,58.8,45.3,30.22,SSW,206,0.0,1.0,61,0.00,,,0.00,meteohub,2013-01-31 01:49:00,
2013-01-30 17:54:00,58.3,45.3,30.22,SSW,206,0.0,1.0,62,0.00,,,0.00,meteohub,2013-01-31 01:54:00,
2013-01-30 17:59:00,57.4,45.7,30.22,SSW,206,1.0,1.0,65,0.00,,,0.00,meteohub,2013-01-31 01:59:00,
2013-01-30 18:04:00,56.7,45.5,30.22,SSW,206,0.0,1.0,66,0.00,,,0.00,meteohub,2013-01-31 02:04:00,
2013-01-30 18:09:00,55.9,45.5,30.22,SSW,207,1.0,1.0,68,0.00,,,0.00,meteohub,2013-01-31 02:09:00,
2013-01-30 18:14:00,55.2,45.1,30.22,SSW,207,0.0,1.0,69,0.00,,,0.00,meteohub,2013-01-31 02:14:00,
2013-01-30 18:19:00,54.9,45.3,30.22,SSW,206,0.0,1.0,70,0.00,,,0.00,meteohub,2013-01-31 02:19:00,
2013-01-30 18:24:00,54.1,45.0,30.22,SSW,206,0.0,1.0,71,0.00,,,0.00,meteohub,2013-01-31 02:24:00,
2013-01-30 18:29:00,53.8,45.3,30.22,SSW,206,0.0,0.0,73,0.00,,,0.00,meteohub,2013-01-31 02:29:00,
2013-01-30 18:34:00,53.2,44.8,30.22,SSW,207,0.0,1.0,73,0.00,,,0.00,meteohub,2013-01-31 02:34:00,
2013-01-30 18:39:00,52.9,44.8,30.22,SSW,207,0.0,1.0,74,0.00,,,0.00,meteohub,2013-01-31 02:39:00,
2013-01-30 18:44:00,52.3,44.2,30.22,SSW,207,0.0,1.0,74,0.00,,,0.00,meteohub,2013-01-31 02:44:00,
2013-01-30 18:49:00,51.8,44.4,30.22,SSW,207,0.0,0.0,76,0.00,,,0.00,meteohub,2013-01-31 02:49:00,
2013-01-30 18:54:00,51.3,44.2,30.23,SSW,207,0.0,0.0,77,0.00,,,0.00,meteohub,2013-01-31 02:54:00,
2013-01-30 18:59:00,50.9,43.9,30.23,SSW,208,0.0,0.0,77,0.00,,,0.00,meteohub,2013-01-31 02:59:00,
2013-01-30 19:05:00,50.4,43.7,30.22,SSW,208,0.0,0.0,78,0.00,,,0.00,meteohub,2013-01-31 03:05:00,
2013-01-30 19:10:00,50.0,43.7,30.22,SSW,207,0.0,0.0,79,0.00,,,0.00,meteohub,2013-01-31 03:10:00,
2013-01-30 19:15:00,49.5,43.5,30.22,SSW,208,0.0,0.0,80,0.00,,,0.00,meteohub,2013-01-31 03:15:00,
2013-01-30 19:20:00,48.9,43.3,30.23,SSW,208,0.0,0.0,81,0.00,,,0.00,meteohub,2013-01-31 03:20:00,
2013-01-30 19:25:00,48.6,43.3,30.23,SSW,207,0.0,0.0,82,0.00,,,0.00,meteohub,2013-01-31 03:25:00,
2013-01-30 19:30:00,48.4,43.2,30.23,SSW,207,0.0,0.0,82,0.00,,,0.00,meteohub,2013-01-31 03:30:00,
2013-01-30 19:35:00,48.0,42.8,30.23,SSW,207,0.0,0.0,82,0.00,,,0.00,meteohub,2013-01-31 03:35:00,
2013-01-30 19:40:00,47.8,43.0,30.23,SSW,207,0.0,0.0,83,0.00,,,0.00,meteohub,2013-01-31 03:40:00,
2013-01-30 19:45:00,47.5,42.6,30.23,SSW,207,0.0,0.0,83,0.00,,,0.00,meteohub,2013-01-31 03:45:00,
2013-01-30 19:50:00,47.3,42.8,30.22,SSW,207,0.0,0.0,84,0.00,,,0.00,meteohub,2013-01-31 03:50:00,
2013-01-30 19:55:00,47.1,42.6,30.22,SSW,208,0.0,0.0,84,0.00,,,0.00,meteohub,2013-01-31 03:55:00,
2013-01-30 20:02:00,47.1,42.8,30.22,SSW,207,0.0,0.0,85,0.00,,,0.00,meteohub,2013-01-31 04:02:00,
2013-01-30 20:07:00,46.8,42.3,30.22,SSW,206,0.0,6.0,84,0.00,,,0.00,meteohub,2013-01-31 04:07:00,
2013-01-30 20:12:00,46.6,42.3,30.22,SSW,206,0.0,5.0,85,0.00,,,0.00,meteohub,2013-01-31 04:12:00,
2013-01-30 20:17:00,46.2,41.9,30.22,SSW,206,0.0,3.0,85,0.00,,,0.00,meteohub,2013-01-31 04:17:00,
2013-01-30 20:22:00,46.0,42.1,30.22,SSW,206,0.0,3.0,86,0.00,,,0.00,meteohub,2013-01-31 04:22:00,
2013-01-30 20:27:00,45.9,41.9,30.22,SSW,206,0.0,4.0,86,0.00,,,0.00,meteohub,2013-01-31 04:27:00,
2013-01-30 20:32:00,45.9,42.3,30.22,SSW,207,0.0,6.0,87,0.00,,,0.00,meteohub,2013-01-31 04:32:00,
2013-01-30 20:37:00,45.7,41.7,30.22,SSW,207,0.0,6.0,86,0.00,,,0.00,meteohub,2013-01-31 04:37:00,
2013-01-30 20:42:00,45.3,41.7,30.22,SSW,208,0.0,4.0,87,0.00,,,0.00,meteohub,2013-01-31 04:42:00,
2013-01-30 20:47:00,45.0,41.4,30.22,SSW,207,0.0,2.0,87,0.00,,,0.00,meteohub,2013-01-31 04:47:00,
2013-01-30 20:52:00,44.8,41.4,30.22,SSW,207,0.0,1.0,88,0.00,,,0.00,meteohub,2013-01-31 04:52:00,
2013-01-30 20:57:00,44.4,41.2,30.22,SSW,207,0.0,0.0,88,0.00,,,0.00,meteohub,2013-01-31 04:57:00,
2013-01-30 21:00:00,44.4,41.2,30.22,SSW,207,0.0,1.0,88,0.00,,,0.00,meteohub,2013-01-31 05:00:00,
2013-01-30 21:01:00,44.4,41.2,30.22,SSW,208,0.0,1.0,88,0.00,,,0.00,meteohub,2013-01-31 05:01:00,
2013-01-30 21:03:00,44.4,41.4,30.22,SSW,207,0.0,1.0,89,0.00,,,0.00,meteohub,2013-01-31 05:03:00,
2013-01-30 21:07:00,44.4,41.4,30.23,SSW,208,0.0,1.0,89,0.00,,,0.00,meteohub,2013-01-31 05:07:00,
2013-01-30 21:12:00,44.2,41.0,30.23,SSW,207,0.0,1.0,88,0.00,,,0.00,meteohub,2013-01-31 05:12:00,
2013-01-30 21:17:00,43.9,40.8,30.23,SSW,208,0.0,1.0,89,0.00,,,0.00,meteohub,2013-01-31 05:17:00,
2013-01-30 21:22:00,43.7,40.6,30.23,SSW,207,0.0,1.0,89,0.00,,,0.00,meteohub,2013-01-31 05:22:00,
2013-01-30 21:27:00,43.5,40.5,30.23,West,273,1.0,1.0,89,0.00,,,0.00,meteohub,2013-01-31 05:27:00,
2013-01-30 21:32:00,43.3,40.3,30.23,West,273,0.0,1.0,89,0.00,,,0.00,meteohub,2013-01-31 05:32:00,
2013-01-30 21:37:00,43.3,40.3,30.23,West,271,1.0,1.0,89,0.00,,,0.00,meteohub,2013-01-31 05:37:00,
2013-01-30 21:42:00,43.2,40.1,30.23,West,271,0.0,1.0,89,0.00,,,0.00,meteohub,2013-01-31 05:42:00,
2013-01-30 21:47:00,43.2,40.1,30.23,West,272,0.0,0.0,89,0.00,,,0.00,meteohub,2013-01-31 05:47:00,
2013-01-30 21:52:00,42.8,40.1,30.23,West,272,0.0,1.0,90,0.00,,,0.00,meteohub,2013-01-31 05:52:00,
2013-01-30 21:57:00,42.6,39.9,30.23,West,271,0.0,1.0,90,0.00,,,0.00,meteohub,2013-01-31 05:57:00,
2013-01-30 22:03:00,42.3,39.6,30.23,West,272,0.0,1.0,90,0.00,,,0.00,meteohub,2013-01-31 06:03:00,
2013-01-30 22:08:00,42.1,39.4,30.23,West,272,0.0,0.0,90,0.00,,,0.00,meteohub,2013-01-31 06:08:00,
2013-01-30 22:13:00,41.9,39.2,30.23,West,271,0.0,0.0,90,0.00,,,0.00,meteohub,2013-01-31 06:13:00,
2013-01-30 22:18:00,41.7,39.2,30.23,West,271,0.0,0.0,91,0.00,,,0.00,meteohub,2013-01-31 06:18:00,
2013-01-30 22:23:00,41.9,39.4,30.23,West,272,0.0,0.0,91,0.00,,,0.00,meteohub,2013-01-31 06:23:00,
2013-01-30 22:28:00,41.7,39.2,30.23,West,271,0.0,0.0,91,0.00,,,0.00,meteohub,2013-01-31 06:28:00,
2013-01-30 22:33:00,41.5,39.2,30.23,West,271,0.0,0.0,91,0.00,,,0.00,meteohub,2013-01-31 06:33:00,
2013-01-30 22:38:00,41.5,39.2,30.23,West,271,0.0,0.0,91,0.00,,,0.00,meteohub,2013-01-31 06:38:00,
2013-01-30 22:43:00,41.4,39.0,30.23,West,272,1.0,0.0,91,0.00,,,0.00,meteohub,2013-01-31 06:43:00,
2013-01-30 22:48:00,41.2,38.8,30.23,West,272,1.0,0.0,91,0.00,,,0.00,meteohub,2013-01-31 06:48:00,
2013-01-30 22:53:00,41.2,38.8,30.23,West,271,0.0,0.0,91,0.00,,,0.00,meteohub,2013-01-31 06:53:00,
2013-01-30 22:58:00,40.8,38.5,30.23,West,271,0.0,0.0,91,0.00,,,0.00,meteohub,2013-01-31 06:58:00,
2013-01-30 23:03:00,40.8,38.7,30.23,West,272,0.0,0.0,92,0.00,,,0.00,meteohub,2013-01-31 07:03:00,
2013-01-30 23:08:00,40.8,38.7,30.23,West,272,0.0,0.0,92,0.00,,,0.00,meteohub,2013-01-31 07:08:00,
2013-01-30 23:13:00,40.8,38.7,30.23,West,272,0.0,0.0,92,0.00,,,0.00,meteohub,2013-01-31 07:13:00,
2013-01-30 23:18:00,40.8,38.7,30.23,West,272,0.0,0.0,92,0.00,,,0.00,meteohub,2013-01-31 07:18:00,
2013-01-30 23:24:00,40.5,38.3,30.23,West,272,0.0,0.0,92,0.00,,,0.00,meteohub,2013-01-31 07:24:00,
2013-01-30 23:29:00,40.5,38.3,30.23,West,272,0.0,0.0,92,0.00,,,0.00,meteohub,2013-01-31 07:29:00,
2013-01-30 23:34:00,40.3,38.1,30.23,West,271,0.0,0.0,92,0.00,,,0.00,meteohub,2013-01-31 07:34:00,
2013-01-30 23:39:00,40.3,38.1,30.23,West,272,0.0,0.0,92,0.00,,,0.00,meteohub,2013-01-31 07:39:00,
2013-01-30 23:44:00,40.3,38.1,30.23,West,271,0.0,0.0,92,0.00,,,0.00,meteohub,2013-01-31 07:44:00,
2013-01-30 23:49:00,40.1,37.9,30.23,West,272,0.0,0.0,92,0.00,,,0.00,meteohub,2013-01-31 07:49:00,
2013-01-30 23:56:00,40.1,38.3,30.23,West,272,0.0,0.0,93,0.00,,,0.00,meteohub,2013-01-31 07:56:00,